createdAt,value
2019-04-05T00:00:55.656Z,10.03
2019-04-05T00:03:25.473Z,10.80
2019-04-05T00:05:55.275Z,10.80
2019-04-05T00:08:26.177Z,9.53
2019-04-05T00:10:56.286Z,8.80
2019-04-05T00:13:26.444Z,9.23
2019-04-05T00:15:56.681Z,8.53
2019-04-05T00:18:26.536Z,8.47
2019-04-05T00:20:56.682Z,10.90
2019-04-05T00:23:26.592Z,10.30
2019-04-05T00:25:58.201Z,8.93
2019-04-05T00:28:28.193Z,10.50
2019-04-05T00:30:58.307Z,11.03
2019-04-05T00:33:28.224Z,10.20
2019-04-05T00:36:02.629Z,9.13
2019-04-05T00:38:32.457Z,10.20
2019-04-05T00:41:02.294Z,9.63
2019-04-05T00:43:33.544Z,9.00
2019-04-05T00:46:03.571Z,10.23
2019-04-05T00:48:33.432Z,8.97
2019-04-05T00:51:04.024Z,10.93
2019-04-05T00:53:34.314Z,10.30
2019-04-05T00:56:05.773Z,14.25
2019-04-05T00:58:35.608Z,15.07
2019-04-05T01:01:06.183Z,11.57
2019-04-05T01:03:35.992Z,12.17
2019-04-05T01:06:06.314Z,12.47
2019-04-05T01:08:36.199Z,12.00
2019-04-05T01:11:06.167Z,11.87
2019-04-05T01:13:37.982Z,11.00
2019-04-05T01:16:08.239Z,10.90
2019-04-05T01:18:38.058Z,11.53
2019-04-05T01:21:10.942Z,10.87
2019-04-05T01:23:41.206Z,11.47
2019-04-05T01:26:12.726Z,12.27
2019-04-05T01:28:42.732Z,12.10
2019-04-05T01:31:12.990Z,10.87
2019-04-05T01:33:42.874Z,11.77
2019-04-05T01:36:12.955Z,11.53
2019-04-05T01:38:42.847Z,10.77
2019-04-05T01:41:12.884Z,10.47
2019-04-05T01:43:43.205Z,12.23
2019-04-05T01:46:13.561Z,13.05
2019-04-05T01:48:43.370Z,12.40
2019-04-05T01:51:14.437Z,14.10
2019-04-05T01:53:44.534Z,12.63
2019-04-05T01:56:14.733Z,11.60
2019-04-05T01:58:44.690Z,12.93
2019-04-05T02:01:15.166Z,11.57
2019-04-05T02:03:45.099Z,11.27
2019-04-05T02:06:15.609Z,15.25
2019-04-05T02:08:45.848Z,14.10
2019-04-05T02:11:15.824Z,14.43
2019-04-05T02:13:45.772Z,13.57
2019-04-05T02:16:15.970Z,15.10
2019-04-05T02:18:46.178Z,13.57
2019-04-05T02:21:16.353Z,14.90
2019-04-05T02:23:46.378Z,13.47
2019-04-05T02:26:16.677Z,14.90
2019-04-05T02:28:47.142Z,13.03
2019-04-05T02:31:17.553Z,12.78
2019-04-05T02:33:47.538Z,18.57
2019-04-05T02:36:18.374Z,17.48
2019-04-05T02:38:48.248Z,19.07
2019-04-05T02:41:19.313Z,17.92
2019-04-05T02:43:51.634Z,18.37
2019-04-05T02:46:24.332Z,20.20
2019-04-05T02:48:55.824Z,20.03
2019-04-05T02:51:28.203Z,20.57
2019-04-05T02:53:59.986Z,16.60
2019-04-05T02:56:31.162Z,18.55
2019-04-05T02:59:02.207Z,13.77
2019-04-05T03:01:34.975Z,18.60
2019-04-05T03:04:05.736Z,13.40
2019-04-05T03:06:35.973Z,13.43
2019-04-05T03:09:07.297Z,15.33
2019-04-05T03:11:39.497Z,14.97
2019-04-05T03:14:11.324Z,13.88
2019-04-05T03:16:44.177Z,13.07
2019-04-05T03:19:20.861Z,12.87
2019-04-05T03:21:53.814Z,17.67
2019-04-05T03:24:27.342Z,14.03
2019-04-05T03:27:05.120Z,16.27
2019-04-05T03:29:35.586Z,15.57
2019-04-05T03:32:07.137Z,14.47
2019-04-05T03:34:35.791Z,17.03
2019-04-05T03:37:04.617Z,16.77
2019-04-05T03:39:33.233Z,16.90
2019-04-05T03:42:02.108Z,17.97
2019-04-05T03:44:32.493Z,16.30
2019-04-05T03:47:02.889Z,17.00
2019-04-05T03:49:34.584Z,16.50
2019-04-05T03:52:07.763Z,18.68
2019-04-05T03:54:37.853Z,15.67
2019-04-05T03:57:08.787Z,18.50
2019-04-05T03:59:38.854Z,16.90
2019-04-05T04:02:09.052Z,20.30
2019-04-05T04:04:38.919Z,19.10
2019-04-05T04:07:08.925Z,16.00
2019-04-05T04:09:39.223Z,16.50
2019-04-05T04:12:09.128Z,17.03
2019-04-05T04:14:40.176Z,14.53
2019-04-05T04:17:13.409Z,18.12
2019-04-05T04:19:44.348Z,18.27
2019-04-05T04:22:31.200Z,17.60
2019-04-05T04:25:01.745Z,18.50
2019-04-05T04:27:32.111Z,22.07
2019-04-05T04:30:02.577Z,18.57
2019-04-05T04:32:34.248Z,17.47
2019-04-05T04:35:06.563Z,19.60
2019-04-05T04:37:36.531Z,15.73
2019-04-05T04:40:07.266Z,16.90
2019-04-05T04:42:37.784Z,17.67
2019-04-05T04:45:12.294Z,18.07
2019-04-05T04:47:40.146Z,17.13
2019-04-05T04:50:12.280Z,21.35
2019-04-05T04:52:43.037Z,19.03
2019-04-05T04:55:14.200Z,18.45
2019-04-05T04:57:44.415Z,17.23
2019-04-05T05:00:14.692Z,19.48
2019-04-05T05:02:45.421Z,16.97
2019-04-05T05:05:14.203Z,19.37
2019-04-05T05:07:42.638Z,21.27
2019-04-05T05:10:11.391Z,18.97
2019-04-05T05:12:40.041Z,24.03
2019-04-05T05:15:12.683Z,21.75
2019-04-05T05:17:43.171Z,19.30
2019-04-05T05:20:13.869Z,21.62
2019-04-05T05:22:43.976Z,20.77
2019-04-05T05:25:14.635Z,19.97
2019-04-05T05:27:45.218Z,18.23
2019-04-05T05:30:15.121Z,18.50
2019-04-05T05:32:45.151Z,20.10
2019-04-05T05:35:15.529Z,20.47
2019-04-05T05:37:45.688Z,18.23
2019-04-05T05:40:16.606Z,19.90
2019-04-05T05:42:46.496Z,18.93
2019-04-05T05:45:17.051Z,21.23
2019-04-05T05:47:52.226Z,21.33
2019-04-05T05:50:19.031Z,18.92
2019-04-05T05:52:49.592Z,17.80
2019-04-05T05:55:20.749Z,20.17
2019-04-05T05:57:54.336Z,18.23
2019-04-05T06:00:24.782Z,20.00
2019-04-05T06:02:54.616Z,21.00
2019-04-05T06:05:24.572Z,21.27
2019-04-05T06:07:54.481Z,21.00
2019-04-05T06:10:24.944Z,20.17
2019-04-05T06:12:54.760Z,20.40
2019-04-05T06:15:24.564Z,19.37
2019-04-05T06:18:04.498Z,19.83
2019-04-05T06:20:26.449Z,20.30
2019-04-05T06:22:56.507Z,20.53
2019-04-05T06:25:26.424Z,19.47
2019-04-05T06:27:59.765Z,20.75
2019-04-05T06:30:29.153Z,21.47
2019-04-05T06:33:00.310Z,20.83
2019-04-05T06:35:30.289Z,21.77
2019-04-05T06:38:00.287Z,20.77
2019-04-05T06:40:40.227Z,24.37
2019-04-05T06:43:01.925Z,25.67
2019-04-05T06:45:32.283Z,22.13
2019-04-05T06:48:02.399Z,21.47
2019-04-05T06:50:32.420Z,23.03
2019-04-05T06:53:02.270Z,21.27
2019-04-05T06:55:32.354Z,21.80
2019-04-05T06:58:02.641Z,21.87
2019-04-05T07:00:32.656Z,21.67
2019-04-05T07:03:02.481Z,19.37
2019-04-05T07:05:32.617Z,21.93
2019-04-05T07:08:02.770Z,23.30
2019-04-05T07:10:32.582Z,21.07
2019-04-05T07:13:02.658Z,23.43
2019-04-05T07:15:32.489Z,19.23
2019-04-05T07:18:02.294Z,20.87
2019-04-05T07:20:32.103Z,20.77
2019-04-05T07:23:01.914Z,19.57
2019-04-05T07:25:31.738Z,18.97
2019-04-05T07:28:01.705Z,21.30
2019-04-05T07:30:32.730Z,20.97
2019-04-05T07:33:03.001Z,21.97
2019-04-05T07:35:34.171Z,21.63
2019-04-05T07:38:05.760Z,20.88
2019-04-05T07:40:34.306Z,19.00
2019-04-05T07:43:02.734Z,21.13
2019-04-05T07:45:31.165Z,24.40
2019-04-05T07:47:59.595Z,22.23
2019-04-05T07:50:28.124Z,20.83
2019-04-05T07:52:57.041Z,20.43
2019-04-05T07:55:26.887Z,21.77
2019-04-05T07:57:56.771Z,19.23
2019-04-05T08:00:51.477Z,21.67
2019-04-05T08:03:22.435Z,20.70
2019-04-05T08:05:54.303Z,18.30
2019-04-05T08:08:37.077Z,17.77
2019-04-05T08:11:08.525Z,20.10
2019-04-05T08:13:41.565Z,18.40
2019-04-05T08:16:11.684Z,19.80
2019-04-05T08:18:41.601Z,18.97
2019-04-05T08:21:11.723Z,19.80
2019-04-05T08:23:42.334Z,18.57
2019-04-05T08:26:12.434Z,18.37
2019-04-05T08:28:42.592Z,17.93
2019-04-05T08:31:14.519Z,17.40
2019-04-05T08:33:44.130Z,16.70
2019-04-05T08:36:14.239Z,16.30
2019-04-05T08:38:44.096Z,14.37
2019-04-05T08:41:15.152Z,13.58
2019-04-05T08:43:47.194Z,13.80
2019-04-05T08:46:17.791Z,14.65
2019-04-05T08:48:47.806Z,12.90
2019-04-05T08:51:17.584Z,12.13
2019-04-05T08:53:47.712Z,11.13
2019-04-05T08:56:18.647Z,14.30
2019-04-05T08:58:48.464Z,12.57
2019-04-05T09:01:18.567Z,12.20
2019-04-05T09:03:48.597Z,11.97
2019-04-05T09:06:18.696Z,12.27
2019-04-05T09:08:48.493Z,12.13
2019-04-05T09:11:18.570Z,12.40
2019-04-05T09:13:49.814Z,11.00
2019-04-05T09:16:19.649Z,13.03
2019-04-05T09:18:49.757Z,13.30
2019-04-05T09:21:19.652Z,12.33
2019-04-05T09:23:48.071Z,13.23
2019-04-05T09:26:17.678Z,12.27
2019-04-05T09:28:46.564Z,12.77
2019-04-05T09:31:16.594Z,13.13
2019-04-05T09:33:46.422Z,13.27
2019-04-05T09:36:16.775Z,13.63
2019-04-05T09:38:46.888Z,12.90
2019-04-05T09:41:16.846Z,12.13
2019-04-05T09:43:46.799Z,13.60
2019-04-05T09:46:16.896Z,14.90
2019-04-05T09:48:46.700Z,14.30
2019-04-05T09:51:16.510Z,15.93
2019-04-05T09:53:46.333Z,15.53
2019-04-05T09:56:16.463Z,17.48
2019-04-05T09:58:46.630Z,17.40
2019-04-05T10:01:16.747Z,16.23
2019-04-05T10:03:46.705Z,15.00
2019-04-05T10:06:16.899Z,17.02
2019-04-05T10:08:46.744Z,16.70
2019-04-05T10:11:16.691Z,14.95
2019-04-05T10:13:46.571Z,16.10
2019-04-05T10:16:16.447Z,15.00
2019-04-05T10:18:47.205Z,16.57
2019-04-05T10:21:18.256Z,14.47
2019-04-05T10:23:48.187Z,14.03
2019-04-05T10:26:18.286Z,14.70
2019-04-05T10:28:48.336Z,13.63
2019-04-05T10:31:18.679Z,14.10
2019-04-05T10:33:49.595Z,13.33
2019-04-05T10:36:20.177Z,12.63
2019-04-05T10:38:50.068Z,12.47
2019-04-05T10:41:22.792Z,11.70
2019-04-05T10:43:51.448Z,12.67
2019-04-05T10:46:21.474Z,13.20
2019-04-05T10:48:51.471Z,12.07
2019-04-05T10:51:21.779Z,13.15
2019-04-05T10:53:51.984Z,12.47
2019-04-05T10:56:21.795Z,11.80
2019-04-05T10:58:51.619Z,12.83
2019-04-05T11:01:21.738Z,13.80
2019-04-05T11:03:51.562Z,13.73
2019-04-05T11:06:21.833Z,13.00
2019-04-05T11:08:51.676Z,13.50
2019-04-05T11:11:21.781Z,14.00
2019-04-05T11:13:51.625Z,12.83
2019-04-05T11:16:23.051Z,13.15
2019-04-05T11:18:53.149Z,12.63
2019-04-05T11:21:22.976Z,12.43
2019-04-05T11:23:53.612Z,13.40
2019-04-05T11:26:24.530Z,12.53
2019-04-05T11:28:54.359Z,12.70
2019-04-05T11:31:24.478Z,12.53
2019-04-05T11:33:54.934Z,13.60
2019-04-05T11:36:25.409Z,12.97
2019-04-05T11:38:56.863Z,13.70
2019-04-05T11:41:28.327Z,13.50
2019-04-05T11:44:00.832Z,13.23
2019-04-05T11:46:32.723Z,13.53
2019-04-05T11:49:04.466Z,13.47
2019-04-05T11:51:34.548Z,13.80
2019-04-05T11:54:05.862Z,14.90
2019-04-05T11:56:35.691Z,15.30
2019-04-05T11:59:08.960Z,14.40
2019-04-05T12:01:49.575Z,14.55
2019-04-05T12:04:19.563Z,14.00
2019-04-05T12:06:51.776Z,14.47
2019-04-05T12:09:20.928Z,14.03
2019-04-05T12:11:50.743Z,15.13
2019-04-05T12:14:30.045Z,15.38
2019-04-05T12:16:53.163Z,15.23
2019-04-05T12:19:23.286Z,14.60
2019-04-05T12:21:53.254Z,13.90
2019-04-05T12:24:23.203Z,14.00
2019-04-05T12:26:53.312Z,13.83
2019-04-05T12:29:22.734Z,14.38
2019-04-05T12:31:53.405Z,14.97
2019-04-05T12:34:22.397Z,13.87
2019-04-05T12:36:52.694Z,14.30
2019-04-05T12:39:21.345Z,13.83
2019-04-05T12:41:50.108Z,14.47
2019-04-05T12:44:18.682Z,13.60
2019-04-05T12:46:48.590Z,12.23
2019-04-05T12:49:18.669Z,12.83
2019-04-05T12:51:48.499Z,13.10
2019-04-05T12:54:19.659Z,10.55
2019-04-05T12:56:49.667Z,11.50
2019-04-05T12:59:19.702Z,11.27
2019-04-05T13:01:49.540Z,11.53
2019-04-05T13:04:20.630Z,11.47
2019-04-05T13:06:52.950Z,11.27
2019-04-05T13:09:23.549Z,11.50
2019-04-05T13:11:57.296Z,11.37
2019-04-05T13:14:26.972Z,12.43
2019-04-05T13:16:57.132Z,12.27
2019-04-05T13:19:28.513Z,12.33
2019-04-05T13:22:00.670Z,12.77
2019-04-05T13:24:30.370Z,13.90
2019-04-05T13:27:02.093Z,13.67
2019-04-05T13:29:32.197Z,12.93
2019-04-05T13:32:02.024Z,13.63
2019-04-05T13:34:31.839Z,13.10
2019-04-05T13:37:02.008Z,11.87
2019-04-05T13:39:31.794Z,13.83
2019-04-05T13:42:02.474Z,12.67
2019-04-05T13:44:32.553Z,11.60
2019-04-05T13:47:01.199Z,11.87
2019-04-05T13:49:29.637Z,13.20
2019-04-05T13:51:58.206Z,13.20
2019-04-05T13:54:28.398Z,11.73
2019-04-05T13:56:58.255Z,11.47
2019-04-05T13:59:28.526Z,12.87
2019-04-05T14:02:06.085Z,10.87
2019-04-05T14:04:30.950Z,12.13
2019-04-05T14:07:03.581Z,11.87
2019-04-05T14:09:32.614Z,11.73
2019-04-05T14:12:02.506Z,12.87
2019-04-05T14:14:32.331Z,12.43
2019-04-05T14:17:02.226Z,12.67
2019-04-05T14:19:32.548Z,13.57
2019-04-05T14:22:08.290Z,13.10
2019-04-05T14:24:34.322Z,12.47
2019-04-05T14:27:04.308Z,12.70
2019-04-05T14:29:34.119Z,12.37
2019-04-05T14:32:19.852Z,13.06
2019-04-05T14:34:37.260Z,13.03
2019-04-05T14:37:08.363Z,12.70
2019-04-05T14:39:38.416Z,12.70
2019-04-05T14:42:09.892Z,13.13
2019-04-05T14:44:40.139Z,12.77
2019-04-05T14:47:10.266Z,13.85
2019-04-05T14:49:40.334Z,12.23
2019-04-05T14:52:10.546Z,14.03
2019-04-05T14:54:43.164Z,14.20
2019-04-05T14:57:12.565Z,12.40
2019-04-05T14:59:42.435Z,12.27
2019-04-05T15:02:12.560Z,12.30
2019-04-05T15:04:42.576Z,13.60
2019-04-05T15:07:12.718Z,14.63
2019-04-05T15:09:42.525Z,12.70
2019-04-05T15:12:12.503Z,15.27
2019-04-05T15:14:42.351Z,14.37
2019-04-05T15:17:12.464Z,14.68
2019-04-05T15:19:42.480Z,13.67
2019-04-05T15:22:12.605Z,12.58
2019-04-05T15:24:44.585Z,14.13
2019-04-05T15:27:14.751Z,14.28
2019-04-05T15:29:44.560Z,14.40
2019-04-05T15:32:14.568Z,14.50
2019-04-05T15:34:44.649Z,15.27
2019-04-05T15:37:16.238Z,15.20
2019-04-05T15:39:47.155Z,14.60
2019-04-05T15:42:16.958Z,13.50
2019-04-05T15:44:46.979Z,12.87
2019-04-05T15:47:16.788Z,14.23
2019-04-05T15:49:46.585Z,14.03
2019-04-05T15:52:19.079Z,14.97
2019-04-05T15:54:48.494Z,14.17
2019-04-05T15:57:18.616Z,14.17
2019-04-05T15:59:48.598Z,14.70
2019-04-05T16:02:19.050Z,13.47
2019-04-05T16:04:49.010Z,15.53
2019-04-05T16:07:18.899Z,14.43
2019-04-05T16:09:48.788Z,15.27
2019-04-05T16:12:18.701Z,14.63
2019-04-05T16:14:48.521Z,14.07
2019-04-05T16:17:18.632Z,15.55
2019-04-05T16:19:48.580Z,16.07
2019-04-05T16:22:30.635Z,14.83
2019-04-05T16:24:50.168Z,16.47
2019-04-05T16:27:20.446Z,15.55
2019-04-05T16:29:50.293Z,15.07
2019-04-05T16:32:22.056Z,16.45
2019-04-05T16:34:51.866Z,17.10
2019-04-05T16:37:21.783Z,16.43
2019-04-05T16:39:51.692Z,16.70
2019-04-05T16:42:22.055Z,16.07
2019-04-05T16:44:51.863Z,16.23
2019-04-05T16:47:21.920Z,17.53
2019-04-05T16:49:51.735Z,16.63
2019-04-05T16:52:21.773Z,15.55
2019-04-05T16:54:51.576Z,16.17
2019-04-05T16:57:21.696Z,16.95
2019-04-05T16:59:51.692Z,16.90
2019-04-05T17:02:21.581Z,17.00
2019-04-05T17:04:51.386Z,17.10
2019-04-05T17:07:21.709Z,14.43
2019-04-05T17:09:51.509Z,15.97
2019-04-05T17:12:21.721Z,18.35
2019-04-05T17:14:51.588Z,17.43
2019-04-05T17:17:21.740Z,17.60
2019-04-05T17:19:52.730Z,17.17
2019-04-05T17:22:22.879Z,17.07
2019-04-05T17:24:53.065Z,16.70
2019-04-05T17:27:23.419Z,16.50
2019-04-05T17:29:53.431Z,17.13
2019-04-05T17:32:23.684Z,16.60
2019-04-05T17:34:53.623Z,16.17
2019-04-05T17:37:26.495Z,15.32
2019-04-05T17:39:55.600Z,15.67
2019-04-05T17:42:25.566Z,18.13
2019-04-05T17:44:55.646Z,16.93
2019-04-05T17:47:25.548Z,18.37
2019-04-05T17:49:55.517Z,17.67
2019-04-05T17:52:25.466Z,20.40
2019-04-05T17:54:55.865Z,18.57
2019-04-05T17:57:25.676Z,17.73
2019-04-05T17:59:55.671Z,19.27
2019-04-05T18:02:26.264Z,18.17
2019-04-05T18:04:56.345Z,16.10
2019-04-05T18:07:26.505Z,17.20
2019-04-05T18:09:56.415Z,17.00
2019-04-05T18:14:55.651Z,18.20
2019-04-05T18:17:25.480Z,19.53
2019-04-05T18:19:55.382Z,17.43
2019-04-05T18:22:25.366Z,19.23
2019-04-05T18:24:55.421Z,18.47
2019-04-05T18:27:25.606Z,18.07
2019-04-05T18:29:55.605Z,18.23
2019-04-05T18:32:25.423Z,16.93
2019-04-05T18:34:55.474Z,19.57
2019-04-05T18:37:26.442Z,17.93
2019-04-05T18:39:57.526Z,18.60
2019-04-05T18:42:27.434Z,18.70
2019-04-05T18:44:57.546Z,18.67
2019-04-05T18:47:28.048Z,17.60
2019-04-05T18:50:03.207Z,18.30
2019-04-05T18:52:29.669Z,19.53
2019-04-05T18:54:59.548Z,20.93
2019-04-05T18:57:29.847Z,22.90
2019-04-05T18:59:59.658Z,20.67
2019-04-05T19:02:29.922Z,20.87
2019-04-05T19:04:59.738Z,22.60
2019-04-05T19:07:29.623Z,22.83
2019-04-05T19:10:00.027Z,22.83
2019-04-05T19:12:29.884Z,21.97
2019-04-05T19:14:59.818Z,21.73
2019-04-05T19:17:29.882Z,20.40
2019-04-05T19:19:59.683Z,21.83
2019-04-05T19:22:28.695Z,22.73
2019-04-05T19:24:58.756Z,20.10
2019-04-05T19:27:28.558Z,20.40
2019-04-05T19:29:58.750Z,18.50
2019-04-05T19:50:01.896Z,16.07
2019-04-05T19:52:30.322Z,15.90
2019-04-05T19:55:00.426Z,15.97
2019-04-05T19:57:30.450Z,15.73
2019-04-05T20:00:00.531Z,16.77
2019-04-05T20:02:30.358Z,15.97
2019-04-05T20:05:00.238Z,18.00
2019-04-05T20:07:30.254Z,16.77
2019-04-05T20:10:00.353Z,17.70
2019-04-05T20:12:30.438Z,17.53
2019-04-05T20:15:00.240Z,18.43
2019-04-05T20:17:30.057Z,18.20
2019-04-05T20:19:59.874Z,18.67
2019-04-05T20:22:30.002Z,19.00
2019-04-05T20:24:59.802Z,17.63
2019-04-05T20:27:29.617Z,18.17
2019-04-05T20:29:59.445Z,20.13
2019-04-05T20:32:29.541Z,18.70
2019-04-05T20:34:59.605Z,19.80
2019-04-05T20:37:29.418Z,20.57
2019-04-05T20:39:59.511Z,19.73
2019-04-05T20:42:29.598Z,19.70
2019-04-05T20:44:59.402Z,20.83
2019-04-05T20:47:28.880Z,21.87
2019-04-05T20:49:57.815Z,21.87
2019-04-05T20:52:27.843Z,20.33
2019-04-05T20:54:58.107Z,21.13
2019-04-05T20:57:28.477Z,21.53
2019-04-05T20:59:58.598Z,20.97
2019-04-05T21:02:28.401Z,22.60
2019-04-05T21:04:59.562Z,23.57
2019-04-05T21:07:29.506Z,23.17
2019-04-05T21:09:59.599Z,24.70
2019-04-05T21:12:30.380Z,24.50
2019-04-05T21:15:00.243Z,23.50
2019-04-05T21:17:30.327Z,23.67
2019-04-05T21:20:00.405Z,24.30
2019-04-05T21:22:30.470Z,25.90
2019-04-05T21:25:00.509Z,28.67
2019-04-05T21:27:30.572Z,28.20
2019-04-05T21:30:00.420Z,26.27
2019-04-05T21:32:30.294Z,26.77
2019-04-05T21:35:02.547Z,28.60
2019-04-05T21:37:32.736Z,26.90
2019-04-05T21:40:02.680Z,26.83
2019-04-05T21:42:32.688Z,27.10
2019-04-05T21:45:02.560Z,26.23
2019-04-05T21:47:32.429Z,28.67
2019-04-05T21:50:02.653Z,28.57
2019-04-05T21:52:32.529Z,25.07
2019-04-05T21:55:02.617Z,27.10
2019-04-05T21:57:32.716Z,27.40
2019-04-05T22:00:03.052Z,28.90
2019-04-05T22:02:34.558Z,28.33
2019-04-05T22:05:06.647Z,28.07
2019-04-05T22:07:36.529Z,27.30
2019-04-05T22:10:06.778Z,28.83
2019-04-05T22:12:37.550Z,27.90
2019-04-05T22:15:07.876Z,25.27
2019-04-05T22:17:38.132Z,26.80
2019-04-05T22:20:09.802Z,28.10
2019-04-05T22:22:39.934Z,26.70
2019-04-05T22:25:09.889Z,27.63
2019-04-05T22:27:40.085Z,27.57
2019-04-05T22:30:10.788Z,29.63
2019-04-05T22:32:40.783Z,26.07
2019-04-05T22:35:10.813Z,29.30
2019-04-05T22:37:40.816Z,26.93
2019-04-05T22:40:11.134Z,26.63
2019-04-05T22:42:41.058Z,28.10
2019-04-05T22:45:11.438Z,27.27
2019-04-05T22:47:41.732Z,27.73
2019-04-05T22:50:12.181Z,26.57
2019-04-05T22:52:42.283Z,30.10
2019-04-05T22:55:12.621Z,28.62
2019-04-05T22:57:42.870Z,28.63
2019-04-05T23:00:12.886Z,28.75
2019-04-05T23:02:44.698Z,29.02
2019-04-05T23:05:15.305Z,29.15
2019-04-05T23:07:45.378Z,28.73
2019-04-05T23:10:16.416Z,27.17
2019-04-05T23:12:46.468Z,25.77
2019-04-05T23:15:16.728Z,26.07
2019-04-05T23:17:46.709Z,27.40
2019-04-05T23:20:17.352Z,30.17
2019-04-05T23:22:47.980Z,27.00
2019-04-05T23:25:22.155Z,28.35
2019-04-05T23:27:49.583Z,28.13
2019-04-05T23:30:20.754Z,32.58
2019-04-05T23:32:50.643Z,32.53
2019-04-05T23:35:20.819Z,30.50
2019-04-05T23:37:50.720Z,33.30
2019-04-05T23:40:20.959Z,30.82
2019-04-05T23:42:50.847Z,29.83
2019-04-05T23:45:21.079Z,30.03
2019-04-05T23:47:50.966Z,30.30
2019-04-05T23:50:21.426Z,33.07
2019-04-05T23:52:51.635Z,30.97
2019-04-05T23:55:32.507Z,30.93
2019-04-05T23:57:53.453Z,29.53
